createdAt,value
2018-12-17T00:00:19.297Z,1003.27
2018-12-17T00:01:19.287Z,1003.22
2018-12-17T00:02:19.277Z,1003.21
2018-12-17T00:03:19.266Z,1003.24
2018-12-17T00:04:19.264Z,1003.20
2018-12-17T00:05:19.285Z,1003.25
2018-12-17T00:06:19.544Z,1003.25
2018-12-17T00:07:19.227Z,1003.22
2018-12-17T00:08:19.216Z,1003.24
2018-12-17T00:09:19.209Z,1003.26
2018-12-17T00:10:19.196Z,1003.27
2018-12-17T00:11:19.290Z,1003.26
2018-12-17T00:12:19.460Z,1003.26
2018-12-17T00:13:19.164Z,1003.28
2018-12-17T00:14:19.154Z,1003.27
2018-12-17T00:15:19.144Z,1003.28
2018-12-17T00:16:19.133Z,1003.25
2018-12-17T00:17:19.169Z,1003.27
2018-12-17T00:18:19.795Z,1003.31
2018-12-17T00:19:19.381Z,1003.25
2018-12-17T00:20:19.092Z,1003.24
2018-12-17T00:21:19.082Z,1003.27
2018-12-17T00:22:19.072Z,1003.24
2018-12-17T00:23:19.101Z,1003.26
2018-12-17T00:24:19.791Z,1003.26
2018-12-17T00:25:19.043Z,1003.25
2018-12-17T00:26:19.389Z,1003.29
2018-12-17T00:27:19.791Z,1003.26
2018-12-17T00:28:19.020Z,1003.25
2018-12-17T00:29:19.047Z,1003.20
2018-12-17T00:30:18.989Z,1003.18
2018-12-17T00:31:18.978Z,1003.22
2018-12-17T00:32:18.969Z,1003.21
2018-12-17T00:33:20.081Z,1003.25
2018-12-17T00:34:18.948Z,1003.21
2018-12-17T00:35:19.053Z,1003.17
2018-12-17T00:36:18.925Z,1003.18
2018-12-17T00:37:18.923Z,1003.15
2018-12-17T00:38:18.907Z,1003.15
2018-12-17T00:39:18.898Z,1003.16
2018-12-17T00:40:19.231Z,1003.11
2018-12-17T00:41:18.923Z,1003.09
2018-12-17T00:42:18.868Z,1003.15
2018-12-17T00:43:18.854Z,1003.09
2018-12-17T00:44:18.844Z,1003.09
2018-12-17T00:45:18.840Z,1003.12
2018-12-17T00:46:18.822Z,1003.13
2018-12-17T00:47:19.302Z,1003.12
2018-12-17T00:48:18.804Z,1003.10
2018-12-17T00:49:18.793Z,1003.11
2018-12-17T00:50:18.782Z,1003.08
2018-12-17T00:51:18.773Z,1003.07
2018-12-17T00:52:18.764Z,1003.05
2018-12-17T00:53:18.797Z,1002.95
2018-12-17T00:54:19.067Z,1003.03
2018-12-17T00:55:18.730Z,1002.97
2018-12-17T00:56:18.719Z,1002.96
2018-12-17T00:57:18.709Z,1003.02
2018-12-17T00:58:18.699Z,1002.97
2018-12-17T00:59:18.730Z,1002.94
2018-12-17T01:00:18.679Z,1002.94
2018-12-17T01:01:18.671Z,1002.94
2018-12-17T01:02:18.658Z,1002.94
2018-12-17T01:03:18.649Z,1002.95
2018-12-17T01:04:18.639Z,1002.98
2018-12-17T01:05:18.686Z,1003.01
2018-12-17T01:06:18.618Z,1003.02
2018-12-17T01:07:19.410Z,1003.06
2018-12-17T01:08:18.599Z,1003.05
2018-12-17T01:09:18.586Z,1003.07
2018-12-17T01:10:18.577Z,1003.06
2018-12-17T01:11:18.610Z,1003.03
2018-12-17T01:12:18.557Z,1003.08
2018-12-17T01:13:18.545Z,1003.07
2018-12-17T01:14:18.902Z,1003.08
2018-12-17T01:15:18.524Z,1003.07
2018-12-17T01:16:18.517Z,1003.05
2018-12-17T01:17:18.547Z,1003.05
2018-12-17T01:18:18.493Z,1003.06
2018-12-17T01:19:18.482Z,1003.05
2018-12-17T01:20:18.474Z,1003.09
2018-12-17T01:21:18.922Z,1003.07
2018-12-17T01:22:18.454Z,1003.09
2018-12-17T01:23:18.734Z,1003.11
2018-12-17T01:24:18.433Z,1003.16
2018-12-17T01:25:18.421Z,1003.14
2018-12-17T01:26:18.410Z,1003.15
2018-12-17T01:27:18.417Z,1003.11
2018-12-17T01:28:22.176Z,1003.17
2018-12-17T01:29:18.420Z,1003.11
2018-12-17T01:30:18.372Z,1003.10
2018-12-17T01:31:18.359Z,1003.12
2018-12-17T01:32:18.348Z,1003.19
2018-12-17T01:33:18.338Z,1003.19
2018-12-17T01:34:18.328Z,1003.19
2018-12-17T01:35:18.798Z,1003.24
2018-12-17T01:36:18.307Z,1003.28
2018-12-17T01:37:18.297Z,1003.23
2018-12-17T01:38:18.287Z,1003.26
2018-12-17T01:39:18.282Z,1003.25
2018-12-17T01:40:18.266Z,1003.30
2018-12-17T01:41:18.334Z,1003.33
2018-12-17T01:42:18.580Z,1003.30
2018-12-17T01:43:18.234Z,1003.30
2018-12-17T01:44:18.223Z,1003.30
2018-12-17T01:45:18.213Z,1003.32
2018-12-17T01:46:18.203Z,1003.29
2018-12-17T01:47:18.233Z,1003.32
2018-12-17T01:48:18.184Z,1003.37
2018-12-17T01:49:18.603Z,1003.49
2018-12-17T01:50:18.203Z,1003.41
2018-12-17T01:51:18.151Z,1003.50
2018-12-17T01:52:18.142Z,1003.42
2018-12-17T01:53:18.171Z,1003.42
2018-12-17T01:54:18.122Z,1003.43
2018-12-17T01:55:18.110Z,1003.38
2018-12-17T01:56:18.386Z,1003.45
2018-12-17T01:57:18.091Z,1003.44
2018-12-17T01:58:18.080Z,1003.49
2018-12-17T01:59:18.120Z,1003.44
2018-12-17T02:00:18.061Z,1003.47
2018-12-17T02:01:18.049Z,1003.44
2018-12-17T02:02:18.038Z,1003.46
2018-12-17T02:03:18.445Z,1003.45
2018-12-17T02:04:18.018Z,1003.49
2018-12-17T02:05:18.048Z,1003.49
2018-12-17T02:06:18.002Z,1003.55
2018-12-17T02:07:17.993Z,1003.54
2018-12-17T02:08:17.983Z,1003.61
2018-12-17T02:09:17.967Z,1003.61
2018-12-17T02:10:18.274Z,1003.64
2018-12-17T02:11:17.989Z,1003.69
2018-12-17T02:12:17.936Z,1003.73
2018-12-17T02:13:17.928Z,1003.67
2018-12-17T02:14:17.982Z,1003.67
2018-12-17T02:15:17.906Z,1003.73
2018-12-17T02:16:17.898Z,1003.65
2018-12-17T02:17:18.319Z,1003.68
2018-12-17T02:18:17.878Z,1003.69
2018-12-17T02:19:17.867Z,1003.74
2018-12-17T02:20:17.854Z,1003.75
2018-12-17T02:21:17.846Z,1003.72
2018-12-17T02:22:17.834Z,1003.83
2018-12-17T02:23:17.867Z,1003.83
2018-12-17T02:24:18.294Z,1003.83
2018-12-17T02:25:17.806Z,1003.85
2018-12-17T02:26:17.794Z,1003.88
2018-12-17T02:27:17.788Z,1003.86
2018-12-17T02:28:17.776Z,1003.85
2018-12-17T02:29:17.809Z,1003.82
2018-12-17T02:30:17.760Z,1003.86
2018-12-17T02:31:17.744Z,1003.82
2018-12-17T02:32:17.734Z,1003.82
2018-12-17T02:33:17.722Z,1003.79
2018-12-17T02:34:17.711Z,1003.71
2018-12-17T02:35:17.998Z,1003.68
2018-12-17T02:36:17.691Z,1003.74
2018-12-17T02:37:18.110Z,1003.70
2018-12-17T02:38:17.672Z,1003.63
2018-12-17T02:39:17.664Z,1003.64
2018-12-17T02:40:17.661Z,1003.59
2018-12-17T02:41:17.684Z,1003.59
2018-12-17T02:42:17.629Z,1003.65
2018-12-17T02:43:17.619Z,1003.66
2018-12-17T02:44:17.900Z,1003.69
2018-12-17T02:45:17.600Z,1003.69
2018-12-17T02:46:17.592Z,1003.70
2018-12-17T02:47:17.617Z,1003.72
2018-12-17T02:48:17.601Z,1003.72
2018-12-17T02:49:17.563Z,1003.68
2018-12-17T02:50:17.547Z,1003.71
2018-12-17T02:51:17.944Z,1003.68
2018-12-17T02:52:17.528Z,1003.72
2018-12-17T02:53:17.739Z,1003.72
2018-12-17T02:54:17.508Z,1003.72
2018-12-17T02:55:17.498Z,1003.73
2018-12-17T02:56:17.485Z,1003.75
2018-12-17T02:57:17.478Z,1003.72
2018-12-17T02:58:17.963Z,1003.74
2018-12-17T02:59:17.496Z,1003.75
2018-12-17T03:01:38.869Z,1003.76
2018-12-17T03:02:38.645Z,1003.75
2018-12-17T03:03:38.636Z,1003.77
2018-12-17T03:04:38.626Z,1003.82
2018-12-17T03:05:38.619Z,1003.79
2018-12-17T03:06:38.604Z,1003.77
2018-12-17T03:07:38.914Z,1003.80
2018-12-17T03:08:38.583Z,1003.78
2018-12-17T03:09:38.574Z,1003.77
2018-12-17T03:10:38.562Z,1003.79
2018-12-17T03:11:38.554Z,1003.76
2018-12-17T03:12:38.543Z,1003.78
2018-12-17T03:13:38.588Z,1003.76
2018-12-17T03:14:38.524Z,1003.78
2018-12-17T03:15:38.508Z,1003.82
2018-12-17T03:16:38.503Z,1003.85
2018-12-17T03:17:38.488Z,1003.90
2018-12-17T03:18:38.479Z,1003.87
2018-12-17T03:19:38.951Z,1003.89
2018-12-17T03:20:38.459Z,1003.88
2018-12-17T03:21:38.449Z,1003.90
2018-12-17T03:22:38.438Z,1003.88
2018-12-17T03:23:38.432Z,1003.89
2018-12-17T03:24:38.420Z,1003.90
2018-12-17T03:25:38.445Z,1003.86
2018-12-17T03:26:38.396Z,1003.90
2018-12-17T03:27:38.384Z,1003.88
2018-12-17T03:28:38.375Z,1003.91
2018-12-17T03:29:38.369Z,1003.87
2018-12-17T03:30:38.359Z,1003.96
2018-12-17T03:31:38.383Z,1003.89
2018-12-17T03:32:38.334Z,1003.90
2018-12-17T03:33:38.322Z,1003.84
2018-12-17T03:34:38.311Z,1003.87
2018-12-17T03:35:38.316Z,1003.87
2018-12-17T03:36:38.293Z,1003.86
2018-12-17T03:37:38.869Z,1003.85
2018-12-17T03:38:38.272Z,1003.88
2018-12-17T03:39:38.258Z,1003.89
2018-12-17T03:40:38.248Z,1003.87
2018-12-17T03:41:38.246Z,1003.88
2018-12-17T03:42:38.228Z,1003.90
2018-12-17T03:43:38.258Z,1003.94
2018-12-17T03:44:38.694Z,1003.98
2018-12-17T03:45:38.195Z,1003.96
2018-12-17T03:46:38.186Z,1003.98
2018-12-17T03:47:38.178Z,1003.99
2018-12-17T03:48:38.164Z,1004.03
2018-12-17T03:49:38.193Z,1004.02
2018-12-17T03:50:38.142Z,1004.04
2018-12-17T03:51:38.545Z,1004.05
2018-12-17T03:52:38.124Z,1003.98
2018-12-17T03:53:38.112Z,1004.06
2018-12-17T03:54:38.847Z,1003.98
2018-12-17T03:55:38.398Z,1004.00
2018-12-17T03:56:38.081Z,1004.02
2018-12-17T03:57:38.071Z,1004.05
2018-12-17T03:58:38.629Z,1004.06
2018-12-17T03:59:38.097Z,1004.08
2018-12-17T04:00:38.042Z,1004.05
2018-12-17T04:01:38.089Z,1004.12
2018-12-17T04:02:38.020Z,1004.06
2018-12-17T04:03:38.024Z,1004.08
2018-12-17T04:04:38.001Z,1004.06
2018-12-17T04:05:37.987Z,1004.07
2018-12-17T04:06:37.978Z,1004.12
2018-12-17T04:07:38.007Z,1004.08
2018-12-17T04:08:37.978Z,1004.10
2018-12-17T04:09:37.945Z,1004.05
2018-12-17T04:10:37.937Z,1004.06
2018-12-17T04:11:38.377Z,1004.06
2018-12-17T04:12:37.917Z,1004.04
2018-12-17T04:13:37.964Z,1004.08
2018-12-17T04:14:37.893Z,1004.05
2018-12-17T04:15:37.882Z,1004.03
2018-12-17T04:16:37.873Z,1004.11
2018-12-17T04:17:37.866Z,1004.09
2018-12-17T04:18:37.858Z,1004.10
2018-12-17T04:19:37.885Z,1004.06
2018-12-17T04:20:37.830Z,1004.11
2018-12-17T04:21:37.823Z,1004.09
2018-12-17T04:22:37.825Z,1004.09
2018-12-17T04:23:38.118Z,1004.13
2018-12-17T04:24:37.789Z,1004.15
2018-12-17T04:25:37.852Z,1004.21
2018-12-17T04:26:37.768Z,1004.17
2018-12-17T04:27:37.769Z,1004.15
2018-12-17T04:28:37.753Z,1004.17
2018-12-17T04:29:37.739Z,1004.16
2018-12-17T04:30:37.728Z,1004.19
2018-12-17T04:31:37.801Z,1004.18
2018-12-17T04:32:37.709Z,1004.20
2018-12-17T04:33:37.694Z,1004.21
2018-12-17T04:34:37.683Z,1004.22
2018-12-17T04:35:38.022Z,1004.16
2018-12-17T04:36:37.664Z,1004.26
2018-12-17T04:37:37.690Z,1004.22
2018-12-17T04:38:37.644Z,1004.27
2018-12-17T04:39:37.632Z,1004.25
2018-12-17T04:40:37.639Z,1004.24
2018-12-17T04:41:37.612Z,1004.30
2018-12-17T04:42:38.038Z,1004.29
2018-12-17T04:43:37.632Z,1004.31
2018-12-17T04:44:37.582Z,1004.31
2018-12-17T04:45:37.579Z,1004.33
2018-12-17T04:46:37.560Z,1004.34
2018-12-17T04:47:37.551Z,1004.29
2018-12-17T04:48:37.543Z,1004.32
2018-12-17T04:49:38.297Z,1004.33
2018-12-17T04:50:37.520Z,1004.41
2018-12-17T04:51:37.508Z,1004.40
2018-12-17T04:52:37.502Z,1004.45
2018-12-17T04:53:37.488Z,1004.44
2018-12-17T04:54:37.476Z,1004.44
2018-12-17T04:55:37.506Z,1004.48
2018-12-17T04:56:37.844Z,1004.46
2018-12-17T04:57:37.445Z,1004.50
2018-12-17T04:58:37.437Z,1004.45
2018-12-17T04:59:37.424Z,1004.50
2018-12-17T05:00:37.416Z,1004.53
2018-12-17T05:01:37.442Z,1004.50
2018-12-17T05:02:37.395Z,1004.47
2018-12-17T05:03:37.399Z,1004.47
2018-12-17T05:04:37.373Z,1004.48
2018-12-17T05:05:37.362Z,1004.48
2018-12-17T05:06:37.358Z,1004.50
2018-12-17T05:07:37.397Z,1004.49
2018-12-17T05:08:37.333Z,1004.45
2018-12-17T05:09:37.333Z,1004.45
2018-12-17T05:10:37.312Z,1004.49
2018-12-17T05:11:37.300Z,1004.48
2018-12-17T05:12:37.290Z,1004.46
2018-12-17T05:13:37.319Z,1004.48
2018-12-17T05:14:37.369Z,1004.49
2018-12-17T05:15:37.632Z,1004.51
2018-12-17T05:16:37.247Z,1004.46
2018-12-17T05:17:37.237Z,1004.48
2018-12-17T05:18:37.228Z,1004.50
2018-12-17T05:19:37.257Z,1004.49
2018-12-17T05:20:37.209Z,1004.48
2018-12-17T05:21:37.196Z,1004.51
2018-12-17T05:22:37.492Z,1004.52
2018-12-17T05:23:37.177Z,1004.52
2018-12-17T05:24:37.167Z,1004.55
2018-12-17T05:25:37.371Z,1004.55
2018-12-17T05:26:37.144Z,1004.54
2018-12-17T05:27:37.210Z,1004.52
2018-12-17T05:28:37.166Z,1004.55
2018-12-17T05:29:37.476Z,1004.59
2018-12-17T05:30:37.825Z,1004.56
2018-12-17T05:31:37.162Z,1004.59
2018-12-17T05:32:37.083Z,1004.57
2018-12-17T05:33:37.074Z,1004.60
2018-12-17T05:34:37.065Z,1004.64
2018-12-17T05:35:37.051Z,1004.62
2018-12-17T05:36:37.496Z,1004.59
2018-12-17T05:37:37.071Z,1004.59
2018-12-17T05:38:37.020Z,1004.58
2018-12-17T05:39:37.034Z,1004.57
2018-12-17T05:40:36.998Z,1004.61
2018-12-17T05:41:36.988Z,1004.61
2018-12-17T05:42:36.986Z,1004.61
2018-12-17T05:43:38.500Z,1004.62
2018-12-17T05:44:36.957Z,1004.63
2018-12-17T05:45:36.946Z,1004.63
2018-12-17T05:46:36.940Z,1004.65
2018-12-17T05:47:36.925Z,1004.67
2018-12-17T05:48:36.916Z,1004.68
2018-12-17T05:49:36.947Z,1004.65
2018-12-17T05:50:37.375Z,1004.68
2018-12-17T05:51:36.887Z,1004.70
2018-12-17T05:52:36.874Z,1004.69
2018-12-17T05:53:36.873Z,1004.68
2018-12-17T05:54:36.855Z,1004.70
2018-12-17T05:55:37.057Z,1004.70
2018-12-17T05:56:36.832Z,1004.69
2018-12-17T05:57:37.147Z,1004.74
2018-12-17T05:58:36.812Z,1004.72
2018-12-17T05:59:36.801Z,1004.70
2018-12-17T06:00:36.791Z,1004.73
2018-12-17T06:01:36.865Z,1004.74
2018-12-17T06:02:36.774Z,1004.79
2018-12-17T06:03:36.769Z,1004.81
2018-12-17T06:04:37.174Z,1004.82
2018-12-17T06:05:36.738Z,1004.81
2018-12-17T06:06:36.729Z,1004.89
2018-12-17T06:07:36.759Z,1004.94
2018-12-17T06:08:36.707Z,1005.00
2018-12-17T06:09:36.699Z,1004.93
2018-12-17T06:10:36.686Z,1004.98
2018-12-17T06:11:36.677Z,1005.00
2018-12-17T06:12:36.666Z,1004.97
2018-12-17T06:13:36.693Z,1004.99
2018-12-17T06:14:36.649Z,1005.01
2018-12-17T06:15:36.634Z,1005.01
2018-12-17T06:16:37.077Z,1005.04
2018-12-17T06:17:36.684Z,1004.98
2018-12-17T06:18:36.610Z,1005.04
2018-12-17T06:19:36.664Z,1005.02
2018-12-17T06:20:36.583Z,1004.98
2018-12-17T06:21:36.579Z,1005.01
2018-12-17T06:22:36.562Z,1004.95
2018-12-17T06:23:36.551Z,1004.97
2018-12-17T06:24:36.540Z,1005.01
2018-12-17T06:25:36.588Z,1005.01
2018-12-17T06:26:36.528Z,1004.99
2018-12-17T06:27:36.853Z,1005.00
2018-12-17T06:28:37.006Z,1004.98
2018-12-17T06:29:36.499Z,1005.03
2018-12-17T06:30:36.481Z,1004.98
2018-12-17T06:31:36.514Z,1004.95
2018-12-17T06:32:36.461Z,1004.91
2018-12-17T06:33:36.453Z,1004.89
2018-12-17T06:34:36.442Z,1004.88
2018-12-17T06:35:36.482Z,1004.94
2018-12-17T06:36:36.421Z,1004.90
2018-12-17T06:37:36.459Z,1004.88
2018-12-17T06:38:36.400Z,1004.90
2018-12-17T06:39:36.387Z,1004.92
2018-12-17T06:40:36.377Z,1004.95
2018-12-17T06:41:36.815Z,1004.98
2018-12-17T06:42:36.356Z,1004.96
2018-12-17T06:43:36.384Z,1004.99
2018-12-17T06:44:36.335Z,1005.03
2018-12-17T06:45:36.325Z,1005.02
2018-12-17T06:46:36.318Z,1005.03
2018-12-17T06:47:36.307Z,1005.02
2018-12-17T06:48:36.752Z,1004.99
2018-12-17T06:49:36.324Z,1005.07
2018-12-17T06:50:36.272Z,1005.04
2018-12-17T06:51:36.262Z,1005.03
2018-12-17T06:52:36.254Z,1005.12
2018-12-17T06:53:36.243Z,1005.09
2018-12-17T06:54:36.231Z,1005.12
2018-12-17T06:55:36.898Z,1005.13
2018-12-17T06:56:36.212Z,1005.16
2018-12-17T06:57:36.200Z,1005.21
2018-12-17T06:58:36.191Z,1005.18
2018-12-17T06:59:42.472Z,1005.23
2018-12-17T07:00:37.193Z,1005.25
2018-12-17T07:01:37.773Z,1005.26
2018-12-17T07:02:36.152Z,1005.26
2018-12-17T07:03:36.153Z,1005.28
2018-12-17T07:04:36.129Z,1005.31
2018-12-17T07:05:36.808Z,1005.30
2018-12-17T07:06:36.108Z,1005.32
2018-12-17T07:07:36.133Z,1005.39
2018-12-17T07:08:36.451Z,1005.41
2018-12-17T07:09:36.076Z,1005.44
2018-12-17T07:10:36.065Z,1005.41
2018-12-17T07:11:36.054Z,1005.40
2018-12-17T07:12:36.047Z,1005.36
2018-12-17T07:13:36.082Z,1005.38
2018-12-17T07:14:36.675Z,1005.39
2018-12-17T07:15:36.012Z,1005.43
2018-12-17T07:16:36.004Z,1005.45
2018-12-17T07:17:36.017Z,1005.48
2018-12-17T07:18:35.981Z,1005.48
2018-12-17T07:19:36.146Z,1005.52
2018-12-17T07:20:35.963Z,1005.51
2018-12-17T07:21:36.462Z,1005.54
2018-12-17T07:22:36.019Z,1005.58
2018-12-17T07:23:35.929Z,1005.58
2018-12-17T07:24:35.920Z,1005.64
2018-12-17T07:25:35.948Z,1005.64
2018-12-17T07:26:36.002Z,1005.62
2018-12-17T07:27:36.943Z,1005.61
2018-12-17T07:28:35.911Z,1005.61
2018-12-17T07:29:36.032Z,1005.63
2018-12-17T07:30:35.979Z,1005.64
2018-12-17T07:31:36.097Z,1005.66
2018-12-17T07:32:35.838Z,1005.69
2018-12-17T07:33:36.233Z,1005.69
2018-12-17T07:34:35.817Z,1005.68
2018-12-17T07:35:35.806Z,1005.65
2018-12-17T07:36:35.969Z,1005.67
2018-12-17T07:37:35.957Z,1005.70
2018-12-17T07:38:35.946Z,1005.67
2018-12-17T07:39:35.769Z,1005.67
2018-12-17T07:40:35.881Z,1005.66
2018-12-17T07:41:35.916Z,1005.71
2018-12-17T07:42:35.828Z,1005.71
2018-12-17T07:43:35.922Z,1005.65
2018-12-17T07:44:35.768Z,1005.66
2018-12-17T07:45:36.067Z,1005.66
2018-12-17T07:46:35.693Z,1005.66
2018-12-17T07:47:35.682Z,1005.65
2018-12-17T07:48:35.672Z,1005.67
2018-12-17T07:49:36.171Z,1005.66
2018-12-17T07:50:35.649Z,1005.69
2018-12-17T07:51:35.639Z,1005.68
2018-12-17T07:52:36.110Z,1005.68
2018-12-17T07:53:35.618Z,1005.73
2018-12-17T07:54:35.638Z,1005.75
2018-12-17T07:55:35.651Z,1005.73
2018-12-17T07:56:35.587Z,1005.75
2018-12-17T07:57:35.581Z,1005.75
2018-12-17T07:58:35.569Z,1005.76
2018-12-17T07:59:35.845Z,1005.80
2018-12-17T08:00:35.548Z,1005.80
2018-12-17T08:01:35.575Z,1005.78
2018-12-17T08:02:35.526Z,1005.78
2018-12-17T08:03:35.517Z,1005.77
2018-12-17T08:04:35.506Z,1005.83
2018-12-17T08:05:35.493Z,1005.87
2018-12-17T08:06:35.865Z,1005.90
2018-12-17T08:07:35.547Z,1005.88
2018-12-17T08:08:35.781Z,1005.92
2018-12-17T08:09:35.457Z,1005.86
2018-12-17T08:10:35.456Z,1005.85
2018-12-17T08:11:35.430Z,1005.85
2018-12-17T08:12:35.421Z,1005.84
2018-12-17T08:13:36.010Z,1005.87
2018-12-17T08:14:35.401Z,1005.89
2018-12-17T08:15:35.529Z,1005.91
2018-12-17T08:16:35.504Z,1005.94
2018-12-17T08:17:35.416Z,1005.90
2018-12-17T08:18:35.543Z,1005.86
2018-12-17T08:19:35.598Z,1005.85
2018-12-17T08:20:35.701Z,1005.89
2018-12-17T08:21:35.329Z,1005.96
2018-12-17T08:22:35.315Z,1006.03
2018-12-17T08:23:35.511Z,1006.03
2018-12-17T08:24:35.302Z,1006.06
2018-12-17T08:25:35.582Z,1006.08
2018-12-17T08:26:35.345Z,1006.10
2018-12-17T08:27:35.718Z,1006.14
2018-12-17T08:28:35.276Z,1006.14
2018-12-17T08:29:35.243Z,1006.16
2018-12-17T08:30:35.232Z,1006.14
2018-12-17T08:31:35.263Z,1006.17
2018-12-17T08:32:35.211Z,1006.19
2018-12-17T08:33:35.202Z,1006.24
2018-12-17T08:34:35.348Z,1006.24
2018-12-17T08:35:35.186Z,1006.27
2018-12-17T08:36:35.209Z,1006.34
2018-12-17T08:37:35.222Z,1006.36
2018-12-17T08:38:35.185Z,1006.36
2018-12-17T08:39:35.382Z,1006.38
2018-12-17T08:40:35.621Z,1006.36
2018-12-17T08:41:35.329Z,1006.38
2018-12-17T08:42:35.370Z,1006.43
2018-12-17T08:43:35.215Z,1006.41
2018-12-17T08:44:35.208Z,1006.49
2018-12-17T08:45:35.090Z,1006.50
2018-12-17T08:46:35.818Z,1006.48
2018-12-17T08:47:35.623Z,1006.51
2018-12-17T08:48:35.081Z,1006.52
2018-12-17T08:49:35.237Z,1006.54
2018-12-17T08:50:35.339Z,1006.57
2018-12-17T08:51:35.067Z,1006.59
2018-12-17T08:52:35.007Z,1006.57
2018-12-17T08:53:35.936Z,1006.56
2018-12-17T08:54:35.536Z,1006.57
2018-12-17T08:55:35.393Z,1006.55
2018-12-17T08:56:35.027Z,1006.56
2018-12-17T08:57:38.065Z,1006.54
2018-12-17T08:58:35.096Z,1006.50
2018-12-17T08:59:35.255Z,1006.50
2018-12-17T09:00:35.108Z,1006.54
2018-12-17T09:01:35.097Z,1006.52
2018-12-17T09:02:35.135Z,1006.55
2018-12-17T09:03:35.083Z,1006.52
2018-12-17T09:04:34.900Z,1006.54
2018-12-17T09:05:35.058Z,1006.57
2018-12-17T09:06:35.074Z,1006.58
2018-12-17T09:07:35.680Z,1006.56
2018-12-17T09:08:35.135Z,1006.58
2018-12-17T09:09:34.977Z,1006.55
2018-12-17T09:10:34.886Z,1006.60
2018-12-17T09:11:34.878Z,1006.63
2018-12-17T09:12:34.853Z,1006.60
2018-12-17T09:13:35.035Z,1006.63
2018-12-17T09:14:34.908Z,1006.63
2018-12-17T09:15:35.079Z,1006.64
2018-12-17T09:16:34.838Z,1006.67
2018-12-17T09:17:35.261Z,1006.59
2018-12-17T09:18:34.958Z,1006.62
2018-12-17T09:19:35.718Z,1006.61
2018-12-17T09:21:23.979Z,1006.58
2018-12-17T09:22:23.982Z,1006.67
2018-12-17T09:23:24.000Z,1006.70
2018-12-17T09:24:24.019Z,1006.66
2018-12-17T09:25:24.283Z,1006.77
2018-12-17T09:26:31.998Z,1006.76
2018-12-17T09:27:24.105Z,1006.73
2018-12-17T09:28:24.174Z,1006.79
2018-12-17T09:29:31.252Z,1006.80
2018-12-17T09:30:24.022Z,1006.76
2018-12-17T09:31:24.110Z,1006.77
2018-12-17T09:32:24.740Z,1006.80
2018-12-17T09:33:24.414Z,1006.81
2018-12-17T09:34:24.267Z,1006.81
2018-12-17T09:35:24.816Z,1006.81
2018-12-17T09:36:23.980Z,1006.78
2018-12-17T09:37:24.223Z,1006.77
2018-12-17T09:38:23.860Z,1006.76
2018-12-17T09:39:23.927Z,1006.82
2018-12-17T09:40:23.852Z,1006.79
2018-12-17T09:41:23.862Z,1006.78
2018-12-17T09:42:32.025Z,1006.80
2018-12-17T09:43:24.036Z,1006.76
2018-12-17T09:44:23.728Z,1006.77
2018-12-17T09:45:25.218Z,1006.77
2018-12-17T09:46:23.752Z,1006.76
2018-12-17T09:47:23.746Z,1006.79
2018-12-17T09:48:23.724Z,1006.78
2018-12-17T09:49:31.195Z,1006.74
2018-12-17T09:50:23.667Z,1006.73
2018-12-17T09:51:23.658Z,1006.76
2018-12-17T09:52:23.767Z,1006.79
2018-12-17T09:53:23.660Z,1006.77
2018-12-17T09:54:24.953Z,1006.75
2018-12-17T09:55:23.793Z,1006.79
2018-12-17T09:56:23.824Z,1006.77
2018-12-17T09:57:23.757Z,1006.75
2018-12-17T09:58:24.153Z,1006.77
2018-12-17T09:59:23.635Z,1006.76
2018-12-17T10:00:25.569Z,1006.72
2018-12-17T10:01:23.606Z,1006.70
2018-12-17T10:02:23.683Z,1006.75
2018-12-17T10:03:23.751Z,1006.75
2018-12-17T10:04:23.541Z,1006.73
2018-12-17T10:05:23.511Z,1006.75
2018-12-17T10:06:23.599Z,1006.78
2018-12-17T10:07:30.308Z,1006.78
2018-12-17T10:08:24.486Z,1006.78
2018-12-17T10:09:23.471Z,1006.80
2018-12-17T10:10:23.460Z,1006.76
2018-12-17T10:11:23.858Z,1006.82
2018-12-17T10:12:23.674Z,1006.78
2018-12-17T10:13:23.430Z,1006.75
2018-12-17T10:14:23.593Z,1006.71
2018-12-17T10:15:23.558Z,1006.73
2018-12-17T10:16:23.598Z,1006.70
2018-12-17T10:17:23.552Z,1006.71
2018-12-17T10:18:36.834Z,1006.74
2018-12-17T10:19:24.474Z,1006.73
2018-12-17T10:20:24.066Z,1006.72
2018-12-17T10:21:23.347Z,1006.66
2018-12-17T10:22:23.336Z,1006.64
2018-12-17T10:23:23.325Z,1006.65
2018-12-17T10:24:23.401Z,1006.64
2018-12-17T10:25:23.776Z,1006.63
2018-12-17T10:26:23.293Z,1006.62
2018-12-17T10:27:23.283Z,1006.51
2018-12-17T10:28:23.270Z,1006.53
2018-12-17T10:29:23.262Z,1006.54
2018-12-17T10:30:23.469Z,1006.53
2018-12-17T10:31:23.239Z,1006.51
2018-12-17T10:32:23.804Z,1006.52
2018-12-17T10:33:23.230Z,1006.49
2018-12-17T10:34:23.257Z,1006.55
2018-12-17T10:35:23.379Z,1006.58
2018-12-17T10:36:23.555Z,1006.56
2018-12-17T10:37:23.259Z,1006.53
2018-12-17T10:38:23.315Z,1006.57
2018-12-17T10:39:23.735Z,1006.58
2018-12-17T10:40:23.156Z,1006.59
2018-12-17T10:41:23.141Z,1006.59
2018-12-17T10:42:23.999Z,1006.61
2018-12-17T10:43:23.302Z,1006.58
2018-12-17T10:44:23.110Z,1006.55
2018-12-17T10:45:23.175Z,1006.56
2018-12-17T10:46:23.560Z,1006.58
2018-12-17T10:47:23.228Z,1006.58
2018-12-17T10:48:23.146Z,1006.55
2018-12-17T10:49:23.057Z,1006.60
2018-12-17T10:50:23.061Z,1006.61
2018-12-17T10:51:23.062Z,1006.61
2018-12-17T10:52:23.136Z,1006.58
2018-12-17T10:53:23.011Z,1006.52
2018-12-17T10:54:23.869Z,1006.52
2018-12-17T10:55:22.993Z,1006.51
2018-12-17T10:56:23.379Z,1006.48
2018-12-17T10:57:23.104Z,1006.45
2018-12-17T10:58:23.152Z,1006.50
2018-12-17T10:59:23.472Z,1006.49
2018-12-17T11:00:23.724Z,1006.49
2018-12-17T11:01:22.960Z,1006.48
2018-12-17T11:02:23.096Z,1006.50
2018-12-17T11:03:23.002Z,1006.55
2018-12-17T11:04:24.063Z,1006.53
2018-12-17T11:05:23.045Z,1006.53
2018-12-17T11:06:23.325Z,1006.57
2018-12-17T11:07:23.008Z,1006.58
2018-12-17T11:08:22.922Z,1006.53
2018-12-17T11:09:22.847Z,1006.51
2018-12-17T11:10:23.262Z,1006.61
2018-12-17T11:11:23.506Z,1006.61
2018-12-17T11:12:23.534Z,1006.61
2018-12-17T11:13:23.021Z,1006.65
2018-12-17T11:14:22.907Z,1006.66
2018-12-17T11:15:23.839Z,1006.68
2018-12-17T11:16:22.875Z,1006.66
2018-12-17T11:17:22.884Z,1006.61
2018-12-17T11:18:23.138Z,1006.62
2018-12-17T11:19:22.824Z,1006.67
2018-12-17T11:20:23.838Z,1006.67
2018-12-17T11:21:22.853Z,1006.61
2018-12-17T11:22:23.257Z,1006.56
2018-12-17T11:23:22.793Z,1006.59
2018-12-17T11:24:24.085Z,1006.53
2018-12-17T11:25:22.921Z,1006.53
2018-12-17T11:26:22.675Z,1006.55
2018-12-17T11:27:22.858Z,1006.53
2018-12-17T11:28:23.836Z,1006.48
2018-12-17T11:29:23.313Z,1006.52
2018-12-17T11:30:23.146Z,1006.47
2018-12-17T11:31:22.893Z,1006.40
2018-12-17T11:32:22.607Z,1006.46
2018-12-17T11:33:22.609Z,1006.48
2018-12-17T11:34:22.589Z,1006.50
2018-12-17T11:35:22.804Z,1006.46
2018-12-17T11:36:23.361Z,1006.46
2018-12-17T11:37:22.691Z,1006.51
2018-12-17T11:38:22.630Z,1006.50
2018-12-17T11:39:22.779Z,1006.48
2018-12-17T11:40:22.718Z,1006.46
2018-12-17T11:41:22.707Z,1006.51
2018-12-17T11:42:24.335Z,1006.49
2018-12-17T11:43:23.193Z,1006.53
2018-12-17T11:44:22.696Z,1006.51
2018-12-17T11:45:22.564Z,1006.55
2018-12-17T11:46:22.577Z,1006.54
2018-12-17T11:47:23.385Z,1006.61
2018-12-17T11:48:23.376Z,1006.54
2018-12-17T11:49:22.678Z,1006.53
2018-12-17T11:50:23.833Z,1006.58
2018-12-17T11:51:22.470Z,1006.50
2018-12-17T11:52:22.489Z,1006.54
2018-12-17T11:53:22.576Z,1006.54
2018-12-17T11:54:23.025Z,1006.50
2018-12-17T11:55:22.559Z,1006.53
2018-12-17T11:56:22.491Z,1006.51
2018-12-17T11:57:22.749Z,1006.50
2018-12-17T11:58:22.453Z,1006.50
2018-12-17T11:59:22.450Z,1006.50
2018-12-17T12:00:24.506Z,1006.50
2018-12-17T12:01:22.454Z,1006.56
2018-12-17T12:02:22.412Z,1006.50
2018-12-17T12:03:22.358Z,1006.59
2018-12-17T12:04:22.845Z,1006.54
2018-12-17T12:05:22.407Z,1006.54
2018-12-17T12:06:22.601Z,1006.49
2018-12-17T12:07:22.603Z,1006.54